Nearby METAR Reports

 

KC09 - Morris-Washburn, Illinois, USA
Distance from station: NW 9mi, 14km
Updated: Fri, 23-Jun-2017 10:35pm CDT
Clear
Clear
 Wind from WNW
Wind: WNW 12 mph , 19 km/h
Temperature: 66°F , 19°C
Dew Point: 57°F , 14°C
Humidity: 73%
Barometer: 29.85 inHg , 1010.8 hPa
Clouds: Clear
Visibility: 10 miles , 16 km
2017/06/24 03:35 KC09 240335Z AUTO 30010KT 10SM CLR 19/14 A2985 RMK AO2 T01900135
KJOT - Joliet, Illinois, USA
Distance from station: NNE 13mi, 22km
Updated: Fri, 23-Jun-2017 10:35pm CDT
Clear
Clear
 Wind from W
Wind: W 3 mph , 6 km/h
Temperature: 70°F , 21°C
Dew Point: 57°F , 14°C
Humidity: 64%
Barometer: 29.85 inHg , 1010.8 hPa
Clouds: Clear
Visibility: 10 miles , 16 km
2017/06/24 03:35 KJOT 240335Z AUTO 28003KT 10SM CLR 21/14 A2985 RMK AO2 T02050140
 
KLOT - Romeoville/Chi, Illinois, USA
Distance from station: NNE 21mi, 33km
Updated: Fri, 23-Jun-2017 10:35pm CDT
Clear
Clear
 Wind from NW
Wind: NW 14 mph , 22 km/h, Gust: 21 mph , 33 km/h
Temperature: 68°F , 20°C
Dew Point: 52°F , 11°C
Humidity: 56%
Barometer: 29.85 inHg , 1010.8 hPa
Clouds: Clear
Visibility: 10 miles , 16 km
2017/06/24 03:35 KLOT 240335Z AUTO 31012G18KT 10SM CLR 20/11 A2985 RMK AO2 T02000110
KIKK - Kankakee, Illinois, USA
Distance from station: SE 30mi, 48km
Updated: Fri, 23-Jun-2017 10:15pm CDT
Clear
Clear
 Wind from W
Wind: W 9 mph , 15 km/h
Temperature: 68°F , 20°C
Dew Point: 57°F , 14°C
Humidity: 69%
Barometer: 29.85 inHg , 1010.8 hPa
Clouds: Clear
Visibility: 10 miles , 16 km
2017/06/24 03:15 KIKK 240315Z AUTO 28008KT 10SM CLR 20/14 A2985 RMK AO2 T02010140
 
KARR - Chicago/Aurora, Illinois, USA
Distance from station: NNW 31mi, 50km
Updated: Fri, 23-Jun-2017 9:52pm CDT
Clear
Clear
 Wind from WNW
Wind: WNW 10 mph , 17 km/h
Temperature: 66°F , 19°C
Dew Point: 55°F , 13°C
Humidity: 68%
Barometer: 29.84 inHg , 1010.5 hPa
Clouds: Clear
Visibility: 10 miles , 16 km
2017/06/24 02:52 KARR 240252Z AUTO 29009KT 10SM CLR 19/13 A2984 RMK AO2 SLP101 T01890133 53031
KPNT - Pontiac, Illinois, USA
Distance from station: SSW 34mi, 54km
Updated: Fri, 23-Jun-2017 10:35pm CDT
Clear
Clear
 Wind from W
Wind: W 8 mph , 13 km/h
Temperature: 66°F , 19°C
Dew Point: 61°F , 16°C
Humidity: 83%
Barometer: 29.89 inHg , 1012.2 hPa
Clouds: Clear
Visibility: 10 miles , 16 km
2017/06/24 03:35 KPNT 240335Z AUTO 28007KT 10SM CLR 19/16 A2989 RMK AO2 T01880157
 
KDPA - Chicago/Dupage, Illinois, USA
Distance from station: N 40mi, 64km
Updated: Fri, 23-Jun-2017 9:52pm CDT
Clear
Clear
 Wind from WNW
Wind: WNW 7 mph , 11 km/h
Temperature: 68°F , 20°C
Dew Point: 55°F , 13°C
Humidity: 64%
Barometer: 29.82 inHg , 1009.8 hPa
Clouds: Clear
Visibility: 10 miles , 16 km
2017/06/24 02:52 KDPA 240252Z 30006KT 10SM CLR 20/13 A2982 RMK AO2 SLP093 T02000133 53028
KIGQ - Chicago/Lansing, Illinois, USA
Distance from station: ENE 42mi, 67km
Updated: Fri, 23-Jun-2017 10:35pm CDT
Clear
Clear
 Wind from WNW
Wind: WNW 10 mph , 17 km/h, Gust: 18 mph , 30 km/h
Temperature: 70°F , 21°C
Dew Point: 54°F , 12°C
Humidity: 57%
Barometer: 29.83 inHg , 1010.2 hPa
Clouds: Clear
Visibility: 10 miles , 16 km
2017/06/24 03:35 KIGQ 240335Z AUTO 30009G16KT 10SM CLR 21/12 A2983 RMK AO2 T02140119
 
KMDW - Chicago, Illinois, USA
Distance from station: NE 42mi, 67km
Updated: Fri, 23-Jun-2017 9:53pm CDT
Few Clouds
Few Clouds
 Wind from NW
Wind: NW 14 mph , 22 km/h
Temperature: 73°F , 23°C
Dew Point: 55°F , 13°C
Humidity: 53%
Barometer: 29.80 inHg , 1009.1 hPa
Clouds: Few Clouds
Visibility: 10 miles , 16 km
Cloud details: Few Clouds 18000 ft
2017/06/24 02:53 KMDW 240253Z 31012KT 10SM FEW180 23/13 A2980 RMK AO2 SLP085 T02280133 53029
KVYS - Peru, Illinois, USA
Distance from station: W 44mi, 71km
Updated: Fri, 23-Jun-2017 10:35pm CDT
Clear
Clear
 Wind from W
Wind: W 6 mph , 9 km/h
Temperature: 64°F , 18°C
Dew Point: 55°F , 13°C
Humidity: 73%
Barometer: 29.88 inHg , 1011.9 hPa
Clouds: Clear
Visibility: 10 miles , 16 km
2017/06/24 03:35 KVYS 240335Z AUTO 28005KT 10SM CLR 18/13 A2988 RMK AO2 T01750130
 
KDKB - De Kalb, Illinois, USA
Distance from station: NNW 46mi, 74km
Updated: Fri, 23-Jun-2017 10:35pm CDT
Clear
Clear
 Wind from WNW
Wind: WNW 14 mph , 22 km/h, Gust: 18 mph , 30 km/h
Temperature: 64°F , 18°C
Dew Point: 55°F , 13°C
Humidity: 73%
Barometer: 29.87 inHg , 1011.5 hPa
Clouds: Clear
Visibility: 10 miles , 16 km
2017/06/24 03:35 KDKB 240335Z AUTO 30012G16KT 10SM CLR 18/13 A2987 RMK AO2 T01790130
KORD - Chicago O'hare, Illinois, USA
Distance from station: NNE 48mi, 78km
Updated: Fri, 23-Jun-2017 9:51pm CDT
Few Clouds
Few Clouds
 Wind from WNW
Wind: WNW 14 mph , 22 km/h
Temperature: 72°F , 22°C
Dew Point: 55°F , 13°C
Humidity: 57%
Barometer: 29.81 inHg , 1009.5 hPa
Clouds: Few Clouds
Visibility: 10 miles , 16 km
Cloud details: Few Clouds 16000 ft
Few Clouds 25000 ft
2017/06/24 02:51 KORD 240251Z 30012KT 10SM FEW160 FEW250 22/13 A2981 RMK AO2 SLP089 T02170128 53031
 
KGYY - Gary Regional, Indiana, USA
Distance from station: ENE 49mi, 80km
Updated: Fri, 23-Jun-2017 10:35pm CDT
Partly cloudy
Partly cloudy
 Wind from W
Wind: W 9 mph , 15 km/h
Temperature: 72°F , 22°C
Dew Point: 54°F , 12°C
Humidity: 53%
Barometer: 29.82 inHg , 1009.8 hPa
Clouds: Partly cloudy
Visibility: 10 miles , 16 km
Cloud details: Partly cloudy 8000 ft
2017/06/24 03:35 KGYY 240335Z AUTO 28008KT 10SM SCT080 22/12 A2982 RMK AO2 T02230117